Time;durP1;ratioP1;P1;durP2;ratioP2;P2;SDS_P1;SDS_P2;PMS_P1;PMS_P2;Temp;Humidity;BMP_temperature;BMP_pressure;BME280_temperature;BME280_humidity;BME280_pressure;Samples;Min_cycle;Max_cycle;Signal;HPM_P1;HPM_P2
2022/12/20 00:01:09;;;;;;;25.70;3.58;;;;;;;;;;6244410;23;20068;-67
2022/12/20 00:03:35;;;;;;;21.42;3.75;;;;;;;;;;6243769;23;20342;-67
2022/12/20 00:06:01;;;;;;;18.23;2.80;;;;;;;;;;6243782;23;20007;-67
2022/12/20 00:08:27;;;;;;;20.88;4.15;;;;;;;;;;6244377;23;20007;-67
2022/12/20 00:10:53;;;;;;;22.50;3.40;;;;;;;;;;6244140;23;20410;-67
2022/12/20 00:13:20;;;;;;;20.38;3.85;;;;;;;;;;6245782;23;20474;-67
2022/12/20 00:15:46;;;;;;;15.70;3.80;;;;;;;;;;6245690;23;20016;-67
2022/12/20 00:18:12;;;;;;;15.70;3.42;;;;;;;;;;6246262;23;20008;-67
2022/12/20 00:20:38;;;;;;;19.90;3.17;;;;;;;;;;6245543;23;20067;-67
2022/12/20 00:23:04;;;;;;;19.70;3.17;;;;;;;;;;6246001;23;20024;-67
2022/12/20 00:25:30;;;;;;;17.48;3.42;;;;;;;;;;6246008;23;19996;-67
2022/12/20 00:27:56;;;;;;;15.88;3.35;;;;;;;;;;6246126;23;20012;-67
2022/12/20 00:30:22;;;;;;;17.00;3.38;;;;;;;;;;6244353;23;20008;-67
2022/12/20 00:32:49;;;;;;;20.63;3.15;;;;;;;;;;6245844;23;20058;-67
2022/12/20 00:35:15;;;;;;;16.38;2.90;;;;;;;;;;6244164;23;20008;-67
2022/12/20 00:37:41;;;;;;;21.42;3.30;;;;;;;;;;6245629;23;20038;-67
2022/12/20 00:40:07;;;;;;;13.57;3.13;;;;;;;;;;6245785;23;20004;-67
2022/12/20 00:42:33;;;;;;;18.85;3.38;;;;;;;;;;6245536;23;20012;-67
2022/12/20 00:45:00;;;;;;;20.05;3.88;;;;;;;;;;6245853;23;20030;-67
2022/12/20 00:47:26;;;;;;;16.95;3.35;;;;;;;;;;6244276;23;20004;-67
2022/12/20 00:49:52;;;;;;;11.65;2.78;;;;;;;;;;6245564;23;20312;-67
2022/12/20 00:52:18;;;;;;;16.80;3.00;;;;;;;;;;6245836;23;20075;-67
2022/12/20 00:54:44;;;;;;;16.95;2.75;;;;;;;;;;6243929;23;20058;-67
2022/12/20 00:57:10;;;;;;;20.38;3.38;;;;;;;;;;6246008;22;20031;-67
2022/12/20 00:59:36;;;;;;;13.75;2.72;;;;;;;;;;6245247;23;20071;-67
2022/12/20 01:02:02;;;;;;;18.45;3.72;;;;;;;;;;6245515;23;20024;-67
2022/12/20 01:04:29;;;;;;;24.10;3.25;;;;;;;;;;6245283;23;20014;-67
2022/12/20 01:06:55;;;;;;;14.90;3.03;;;;;;;;;;6245325;23;20011;-67
2022/12/20 01:09:21;;;;;;;14.40;3.00;;;;;;;;;;6244184;23;20004;-67
2022/12/20 01:11:47;;;;;;;15.70;2.55;;;;;;;;;;6245184;23;20008;-67
2022/12/20 01:14:14;;;;;;;10.98;2.33;;;;;;;;;;6245219;23;20023;-67
2022/12/20 01:16:42;;;;;;;11.45;2.17;;;;;;;;;;6243665;23;20019;-67
2022/12/20 01:19:10;;;;;;;6.68;2.00;;;;;;;;;;6243847;23;20335;-67
2022/12/20 01:21:38;;;;;;;14.32;2.97;;;;;;;;;;6245652;22;20388;-67
2022/12/20 01:24:04;;;;;;;12.43;2.67;;;;;;;;;;6244875;22;20000;-67
2022/12/20 01:26:31;;;;;;;14.52;2.80;;;;;;;;;;6245580;22;20062;-68
2022/12/20 01:28:58;;;;;;;14.95;2.28;;;;;;;;;;6245178;23;20031;-68
2022/12/20 01:31:25;;;;;;;11.40;2.15;;;;;;;;;;6244365;22;20008;-68
2022/12/20 01:33:52;;;;;;;21.35;3.78;;;;;;;;;;6244846;23;20004;-67
2022/12/20 01:36:19;;;;;;;10.38;2.50;;;;;;;;;;6245106;23;20062;-67
2022/12/20 01:38:46;;;;;;;15.05;2.65;;;;;;;;;;6244630;23;20435;-67
2022/12/20 01:41:17;;;;;;;23.08;3.40;;;;;;;;;;6245171;23;20015;-67
2022/12/20 01:43:51;;;;;;;9.60;2.72;;;;;;;;;;6244855;22;20012;-67
2022/12/20 01:46:18;;;;;;;12.90;3.13;;;;;;;;;;6244681;23;20115;-67
2022/12/20 01:48:46;;;;;;;18.60;2.60;;;;;;;;;;6245896;23;20004;-67
2022/12/20 01:51:13;;;;;;;13.90;2.78;;;;;;;;;;6246034;22;20054;-67
2022/12/20 01:53:39;;;;;;;15.75;2.75;;;;;;;;;;6245797;22;20005;-67
2022/12/20 01:56:07;;;;;;;15.55;2.80;;;;;;;;;;6244215;23;20035;-67
2022/12/20 01:58:34;;;;;;;12.38;2.55;;;;;;;;;;6244246;23;20012;-67
2022/12/20 02:01:00;;;;;;;16.67;3.30;;;;;;;;;;6242812;23;20011;-67
2022/12/20 02:03:26;;;;;;;10.18;2.17;;;;;;;;;;6244885;23;20000;-67
2022/12/20 02:05:53;;;;;;;16.30;2.42;;;;;;;;;;6242054;23;20006;-67
2022/12/20 02:08:19;;;;;;;14.85;2.40;;;;;;;;;;6244523;23;20071;-67
2022/12/20 02:10:52;;;;;;;12.23;2.05;;;;;;;;;;6242876;23;20030;-67
2022/12/20 02:13:36;;;;;;;10.57;2.28;;;;;;;;;;6244507;23;20473;-67
2022/12/20 02:16:03;;;;;;;13.98;2.78;;;;;;;;;;6243125;23;20008;-67
2022/12/20 02:18:32;;;;;;;12.30;2.50;;;;;;;;;;6244909;23;20015;-67
2022/12/20 02:21:22;;;;;;;9.45;1.88;;;;;;;;;;6244918;23;20014;-67
2022/12/20 02:24:06;;;;;;;12.75;2.17;;;;;;;;;;6244726;23;20389;-67
2022/12/20 02:26:35;;;;;;;12.95;2.22;;;;;;;;;;6244885;23;20004;-67
2022/12/20 02:29:21;;;;;;;8.93;1.90;;;;;;;;;;6244417;23;20473;-67
2022/12/20 02:32:00;;;;;;;11.43;2.15;;;;;;;;;;6243270;23;20003;-67
2022/12/20 02:34:27;;;;;;;14.10;2.33;;;;;;;;;;6243178;23;20019;-67
2022/12/20 02:36:53;;;;;;;12.70;2.15;;;;;;;;;;6242951;23;20008;-67
2022/12/20 02:39:20;;;;;;;13.20;2.35;;;;;;;;;;6243498;23;20008;-67
2022/12/20 02:41:52;;;;;;;10.23;1.90;;;;;;;;;;6244953;22;20000;-67
2022/12/20 02:47:06;;;;;;;8.70;1.80;;;;;;;;;;6242919;23;20008;-67
2022/12/20 02:49:37;;;;;;;8.75;2.10;;;;;;;;;;6242944;23;20000;-67
2022/12/20 02:52:05;;;;;;;11.85;2.13;;;;;;;;;;6242878;23;20032;-67
2022/12/20 02:54:32;;;;;;;18.45;2.20;;;;;;;;;;6244840;23;20071;-67
2022/12/20 02:57:13;;;;;;;6.50;1.63;;;;;;;;;;6244574;23;20007;-67
2022/12/20 02:59:43;;;;;;;12.15;2.05;;;;;;;;;;6242742;23;20008;-67
2022/12/20 03:02:10;;;;;;;13.90;1.80;;;;;;;;;;6242715;23;20336;-67
2022/12/20 03:04:38;;;;;;;6.25;1.67;;;;;;;;;;6243115;23;20032;-67
2022/12/20 03:07:06;;;;;;;16.58;1.98;;;;;;;;;;6244357;23;20079;-67
2022/12/20 03:09:34;;;;;;;14.98;2.20;;;;;;;;;;6243051;23;20004;-67
2022/12/20 03:12:00;;;;;;;13.25;2.70;;;;;;;;;;6242773;23;20004;-67
2022/12/20 03:14:27;;;;;;;11.63;2.00;;;;;;;;;;6242054;23;20025;-67
2022/12/20 03:16:57;;;;;;;10.23;2.55;;;;;;;;;;6242811;23;20012;-67
2022/12/20 03:19:23;;;;;;;13.52;3.72;;;;;;;;;;6244631;22;20008;-67
2022/12/20 03:21:49;;;;;;;15.50;2.50;;;;;;;;;;6244577;23;20346;-67
2022/12/20 03:24:16;;;;;;;14.27;2.60;;;;;;;;;;6242320;23;20012;-67
2022/12/20 03:26:42;;;;;;;13.95;2.08;;;;;;;;;;6243062;23;20493;-67
2022/12/20 03:29:09;;;;;;;13.93;2.78;;;;;;;;;;6242387;23;20485;-67
2022/12/20 03:31:36;;;;;;;14.60;2.50;;;;;;;;;;6217541;23;20000;-67
2022/12/20 03:34:03;;;;;;;15.98;2.72;;;;;;;;;;6242590;23;20075;-67
2022/12/20 03:36:29;;;;;;;14.45;2.58;;;;;;;;;;6242740;23;20004;-67
2022/12/20 03:38:58;;;;;;;13.35;2.53;;;;;;;;;;6242916;23;20087;-67
2022/12/20 03:41:26;;;;;;;27.63;4.45;;;;;;;;;;6242815;23;20016;-67
2022/12/20 03:43:53;;;;;;;19.92;3.33;;;;;;;;;;6242435;23;20012;-67
2022/12/20 03:46:21;;;;;;;19.65;2.72;;;;;;;;;;6243147;23;20024;-67
2022/12/20 03:48:47;;;;;;;13.98;2.88;;;;;;;;;;6246540;22;20039;-67
2022/12/20 03:51:13;;;;;;;26.90;3.35;;;;;;;;;;6244815;23;20477;-67
2022/12/20 03:53:40;;;;;;;26.40;2.67;;;;;;;;;;6246216;23;20005;-67
2022/12/20 03:56:06;;;;;;;18.05;2.63;;;;;;;;;;6244198;23;20019;-67
2022/12/20 03:58:33;;;;;;;22.63;3.08;;;;;;;;;;6244734;23;20163;-67
2022/12/20 04:00:59;;;;;;;19.17;3.03;;;;;;;;;;6244744;23;20087;-67
2022/12/20 04:03:37;;;;;;;24.10;2.58;;;;;;;;;;6244497;23;20004;-67
2022/12/20 04:06:03;;;;;;;17.80;3.78;;;;;;;;;;6246292;23;20004;-67
2022/12/20 04:08:30;;;;;;;25.52;3.67;;;;;;;;;;6244775;23;20091;-67
2022/12/20 04:13:48;;;;;;;21.05;3.55;;;;;;;;;;6244384;23;20421;-67
2022/12/20 04:16:15;;;;;;;18.52;3.25;;;;;;;;;;6244416;23;20012;-67
2022/12/20 04:18:42;;;;;;;20.40;2.95;;;;;;;;;;6244595;23;20050;-67
2022/12/20 04:21:09;;;;;;;27.98;3.33;;;;;;;;;;6244439;23;20019;-67
2022/12/20 04:23:40;;;;;;;25.02;3.28;;;;;;;;;;6244252;23;20000;-67
2022/12/20 04:26:07;;;;;;;22.70;2.85;;;;;;;;;;6243960;23;20454;-67
2022/12/20 04:28:34;;;;;;;27.30;3.47;;;;;;;;;;6244405;23;20047;-67
2022/12/20 04:31:00;;;;;;;35.08;3.08;;;;;;;;;;6244298;23;20036;-67
2022/12/20 04:33:28;;;;;;;20.48;3.75;;;;;;;;;;6244376;23;20434;-67
2022/12/20 04:35:55;;;;;;;23.45;4.28;;;;;;;;;;6246226;22;20004;-67
2022/12/20 04:38:23;;;;;;;32.08;3.15;;;;;;;;;;6244118;23;20161;-67
2022/12/20 04:40:54;;;;;;;23.13;2.90;;;;;;;;;;6243936;23;20019;-67
2022/12/20 04:43:22;;;;;;;32.50;3.72;;;;;;;;;;6244229;23;20004;-67
2022/12/20 04:45:49;;;;;;;43.20;3.90;;;;;;;;;;6243969;23;20012;-67
2022/12/20 04:48:16;;;;;;;30.00;3.97;;;;;;;;;;6243963;23;20431;-67
2022/12/20 04:50:42;;;;;;;24.88;3.20;;;;;;;;;;6246057;23;20330;-67
2022/12/20 04:55:55;;;;;;;34.95;4.10;;;;;;;;;;6245430;23;20027;-67
2022/12/20 04:58:22;;;;;;;28.77;5.10;;;;;;;;;;6243769;23;20012;-67
2022/12/20 05:00:48;;;;;;;33.33;3.55;;;;;;;;;;6243831;23;20004;-67
2022/12/20 05:03:22;;;;;;;23.70;2.88;;;;;;;;;;6244141;23;20028;-67
2022/12/20 05:05:48;;;;;;;30.70;3.67;;;;;;;;;;6243465;23;20000;-67
2022/12/20 05:08:15;;;;;;;12.73;2.13;;;;;;;;;;6243915;23;20004;-67
2022/12/20 05:10:42;;;;;;;17.40;2.90;;;;;;;;;;6243608;23;20008;-67
2022/12/20 05:13:08;;;;;;;24.30;2.65;;;;;;;;;;6243732;23;20022;-67
2022/12/20 05:15:39;;;;;;;15.90;2.13;;;;;;;;;;6243884;23;20054;-67
2022/12/20 05:18:05;;;;;;;13.50;2.30;;;;;;;;;;6244117;23;20079;-67
2022/12/20 05:20:43;;;;;;;15.23;2.60;;;;;;;;;;6244139;23;20073;-67
2022/12/20 05:26:17;;;;;;;17.92;2.67;;;;;;;;;;6243966;23;20458;-67
2022/12/20 05:28:44;;;;;;;23.38;3.35;;;;;;;;;;6243795;23;20343;-67
2022/12/20 05:31:10;;;;;;;22.30;3.30;;;;;;;;;;6243746;23;20004;-67
2022/12/20 05:33:36;;;;;;;23.38;3.28;;;;;;;;;;6243526;23;20008;-67
2022/12/20 05:36:04;;;;;;;21.77;2.85;;;;;;;;;;6243513;23;20061;-67
2022/12/20 05:38:30;;;;;;;19.75;3.78;;;;;;;;;;6243105;23;20019;-67
2022/12/20 05:40:57;;;;;;;15.73;2.60;;;;;;;;;;6243717;23;20011;-67
2022/12/20 05:43:23;;;;;;;15.63;1.88;;;;;;;;;;6243186;23;20068;-67
2022/12/20 05:45:50;;;;;;;11.40;1.85;;;;;;;;;;6245255;23;20000;-67
2022/12/20 05:48:21;;;;;;;8.85;2.00;;;;;;;;;;6243479;23;20462;-67
2022/12/20 05:50:48;;;;;;;9.40;1.10;;;;;;;;;;6243700;23;20004;-67
2022/12/20 05:53:40;;;;;;;9.25;1.10;;;;;;;;;;6151936;23;20038;-67
2022/12/20 05:56:07;;;;;;;10.63;1.63;;;;;;;;;;6127663;23;20033;-67
2022/12/20 05:58:37;;;;;;;10.75;1.33;;;;;;;;;;6127553;23;20005;-67
2022/12/20 06:01:05;;;;;;;12.13;1.90;;;;;;;;;;6152521;23;20101;-67
2022/12/20 06:03:36;;;;;;;8.32;1.58;;;;;;;;;;6127338;23;20081;-67
2022/12/20 06:06:06;;;;;;;12.23;1.98;;;;;;;;;;6127875;23;20490;-67
2022/12/20 06:08:34;;;;;;;12.98;1.70;;;;;;;;;;6151843;23;20166;-67
2022/12/20 06:11:04;;;;;;;5.07;1.55;;;;;;;;;;6127182;23;20020;-67
2022/12/20 06:13:33;;;;;;;14.38;1.98;;;;;;;;;;6127397;23;20129;-67
2022/12/20 06:15:59;;;;;;;13.68;2.00;;;;;;;;;;6127609;23;20067;-67
2022/12/20 06:18:26;;;;;;;8.00;1.98;;;;;;;;;;6127501;23;20393;-67
2022/12/20 06:20:56;;;;;;;16.52;1.90;;;;;;;;;;6127652;23;20514;-67
2022/12/20 06:23:24;;;;;;;13.02;2.50;;;;;;;;;;6126985;23;20021;-67
2022/12/20 06:26:03;;;;;;;14.73;1.83;;;;;;;;;;6127520;23;20452;-67
2022/12/20 06:28:32;;;;;;;14.88;1.70;;;;;;;;;;6127417;23;20005;-67
2022/12/20 06:30:58;;;;;;;8.30;1.70;;;;;;;;;;6219255;23;20000;-67
2022/12/20 06:33:47;;;;;;;12.15;1.73;;;;;;;;;;6243216;23;20008;-67
2022/12/20 06:36:15;;;;;;;6.93;1.48;;;;;;;;;;6242492;23;20015;-67
2022/12/20 06:38:42;;;;;;;10.63;2.33;;;;;;;;;;6243162;23;20015;-67
2022/12/20 06:41:09;;;;;;;6.40;1.15;;;;;;;;;;6243080;23;20011;-67
2022/12/20 06:43:36;;;;;;;13.07;1.92;;;;;;;;;;6242773;23;20358;-67
2022/12/20 06:46:02;;;;;;;11.70;1.60;;;;;;;;;;6242772;23;20008;-67
2022/12/20 06:48:29;;;;;;;13.02;2.00;;;;;;;;;;6244649;22;20000;-67
2022/12/20 06:50:55;;;;;;;11.75;2.72;;;;;;;;;;6242266;23;20000;-67
2022/12/20 06:53:22;;;;;;;6.07;1.48;;;;;;;;;;6243195;23;20456;-67
2022/12/20 06:55:50;;;;;;;7.75;1.48;;;;;;;;;;6244482;22;20004;-67
2022/12/20 06:58:17;;;;;;;13.75;2.05;;;;;;;;;;6243130;23;20062;-67
2022/12/20 07:00:45;;;;;;;10.00;1.58;;;;;;;;;;6241814;23;20004;-67
2022/12/20 07:03:11;;;;;;;18.48;2.97;;;;;;;;;;6243812;23;20011;-67
2022/12/20 07:05:38;;;;;;;11.60;1.70;;;;;;;;;;6243127;23;20008;-67
2022/12/20 07:08:04;;;;;;;13.95;1.35;;;;;;;;;;6244700;23;20394;-67
2022/12/20 07:10:31;;;;;;;8.80;1.60;;;;;;;;;;6244424;23;20042;-67
2022/12/20 07:12:57;;;;;;;8.57;2.17;;;;;;;;;;6243495;23;20383;-67
2022/12/20 07:15:23;;;;;;;15.52;1.80;;;;;;;;;;6243608;23;20046;-67
2022/12/20 07:17:50;;;;;;;7.20;1.27;;;;;;;;;;6244028;23;20083;-67
2022/12/20 07:20:16;;;;;;;7.78;1.92;;;;;;;;;;6244470;22;20319;-67
2022/12/20 07:22:42;;;;;;;10.00;2.03;;;;;;;;;;6245722;23;20004;-67
2022/12/20 07:25:09;;;;;;;11.77;1.75;;;;;;;;;;6245663;23;20007;-67
2022/12/20 07:27:35;;;;;;;7.18;1.52;;;;;;;;;;6245525;22;20000;-67
2022/12/20 07:30:02;;;;;;;7.72;1.60;;;;;;;;;;6245860;23;20389;-67
2022/12/20 07:32:28;;;;;;;8.35;1.65;;;;;;;;;;6246876;23;20024;-67
2022/12/20 07:34:54;;;;;;;6.90;1.40;;;;;;;;;;6244342;23;20371;-67
2022/12/20 07:37:20;;;;;;;12.93;2.47;;;;;;;;;;6246679;23;20461;-66
2022/12/20 07:39:46;;;;;;;8.27;2.67;;;;;;;;;;6246043;23;20008;-66
2022/12/20 07:42:13;;;;;;;10.60;1.52;;;;;;;;;;6246577;23;19996;-66
2022/12/20 07:44:42;;;;;;;9.15;2.60;;;;;;;;;;6246224;22;20004;-66
2022/12/20 07:47:08;;;;;;;5.78;2.17;;;;;;;;;;6246708;22;20000;-66
2022/12/20 07:49:35;;;;;;;10.85;1.90;;;;;;;;;;6246220;23;20024;-66
2022/12/20 07:52:03;;;;;;;10.95;2.00;;;;;;;;;;6246146;23;20051;-66
2022/12/20 07:54:42;;;;;;;7.90;1.15;;;;;;;;;;6246737;23;20008;-66
2022/12/20 07:57:14;;;;;;;5.75;1.50;;;;;;;;;;6245769;23;20004;-66
2022/12/20 07:59:41;;;;;;;9.07;1.70;;;;;;;;;;6245750;23;20012;-66
2022/12/20 08:02:10;;;;;;;6.15;1.73;;;;;;;;;;6246172;23;20008;-66
2022/12/20 08:04:36;;;;;;;5.63;1.50;;;;;;;;;;6243229;23;20004;-69
2022/12/20 08:07:03;;;;;;;6.20;1.65;;;;;;;;;;6246456;23;20004;-66
2022/12/20 08:09:30;;;;;;;13.57;2.08;;;;;;;;;;6245619;23;20434;-66
2022/12/20 08:11:57;;;;;;;9.30;2.00;;;;;;;;;;6245875;23;20000;-66
2022/12/20 08:14:23;;;;;;;6.07;2.45;;;;;;;;;;6246121;23;20016;-66
2022/12/20 08:16:50;;;;;;;7.07;2.25;;;;;;;;;;6245310;23;20015;-66
2022/12/20 08:19:16;;;;;;;7.55;3.17;;;;;;;;;;6244386;23;20015;-66
2022/12/20 08:21:42;;;;;;;7.10;3.15;;;;;;;;;;6245323;23;20328;-66
2022/12/20 08:24:08;;;;;;;5.97;2.20;;;;;;;;;;6244764;23;20401;-66
2022/12/20 08:26:38;;;;;;;9.57;2.78;;;;;;;;;;6245224;23;20001;-66
2022/12/20 08:29:04;;;;;;;12.68;4.45;;;;;;;;;;6244762;23;20004;-66
2022/12/20 08:31:31;;;;;;;12.15;4.25;;;;;;;;;;6245019;23;20000;-66
2022/12/20 08:33:57;;;;;;;11.00;4.75;;;;;;;;;;6244062;23;20037;-66
2022/12/20 08:36:23;;;;;;;10.63;3.88;;;;;;;;;;6244428;23;20004;-66
2022/12/20 08:38:49;;;;;;;12.82;3.60;;;;;;;;;;6245234;23;20394;-66
2022/12/20 08:41:15;;;;;;;7.47;3.22;;;;;;;;;;6245227;23;20000;-66
2022/12/20 08:43:42;;;;;;;11.98;4.10;;;;;;;;;;6245505;23;20016;-66
2022/12/20 08:46:10;;;;;;;11.75;4.55;;;;;;;;;;6245160;23;20382;-66
2022/12/20 08:48:37;;;;;;;11.13;4.32;;;;;;;;;;6245256;22;20422;-66
2022/12/20 08:51:04;;;;;;;12.35;4.10;;;;;;;;;;6245407;23;20397;-66
2022/12/20 08:53:30;;;;;;;12.25;3.88;;;;;;;;;;6245517;23;20012;-66
2022/12/20 08:56:07;;;;;;;7.60;4.45;;;;;;;;;;6245227;23;20000;-66
2022/12/20 08:58:33;;;;;;;16.98;4.70;;;;;;;;;;6245543;23;20019;-66
2022/12/20 09:01:00;;;;;;;12.68;5.88;;;;;;;;;;6244538;23;20004;-66
2022/12/20 09:03:26;;;;;;;9.60;5.03;;;;;;;;;;6244923;22;20042;-66
2022/12/20 09:05:52;;;;;;;17.80;6.10;;;;;;;;;;6245269;23;20029;-66
2022/12/20 09:08:18;;;;;;;12.73;5.15;;;;;;;;;;6244915;23;20008;-66
2022/12/20 09:10:45;;;;;;;16.13;5.35;;;;;;;;;;6245476;23;20349;-66
2022/12/20 09:13:11;;;;;;;13.30;4.60;;;;;;;;;;6244247;23;20414;-66
2022/12/20 09:15:37;;;;;;;11.32;4.63;;;;;;;;;;6244737;23;20014;-66
2022/12/20 09:18:04;;;;;;;20.88;5.65;;;;;;;;;;6245801;23;20011;-66
2022/12/20 09:20:30;;;;;;;13.32;5.07;;;;;;;;;;6245989;22;20004;-66
2022/12/20 09:22:58;;;;;;;14.73;4.43;;;;;;;;;;6245338;23;20035;-66
2022/12/20 09:25:25;;;;;;;18.05;5.25;;;;;;;;;;6245965;22;20327;-66
2022/12/20 09:27:51;;;;;;;13.77;4.80;;;;;;;;;;6245496;23;20004;-66
2022/12/20 09:30:17;;;;;;;16.90;4.82;;;;;;;;;;6244939;23;20075;-66
2022/12/20 09:32:44;;;;;;;13.88;4.82;;;;;;;;;;6245447;23;20399;-66
2022/12/20 09:35:10;;;;;;;10.50;4.72;;;;;;;;;;6245540;22;20030;-66
2022/12/20 09:37:36;;;;;;;10.48;4.57;;;;;;;;;;6245544;23;20004;-66
2022/12/20 09:40:03;;;;;;;12.25;4.63;;;;;;;;;;6245326;23;20000;-66
2022/12/20 09:42:29;;;;;;;9.45;5.15;;;;;;;;;;6245438;22;20023;-66
2022/12/20 09:45:00;;;;;;;13.65;4.78;;;;;;;;;;6244821;23;20334;-66
2022/12/20 09:47:26;;;;;;;14.52;3.60;;;;;;;;;;6245106;23;20023;-66
2022/12/20 09:49:55;;;;;;;13.77;3.92;;;;;;;;;;6244581;23;20496;-66
2022/12/20 09:52:43;;;;;;;11.93;4.00;;;;;;;;;;6244954;23;20027;-66
2022/12/20 09:55:21;;;;;;;6.75;3.92;;;;;;;;;;6243977;23;20012;-66
2022/12/20 09:57:53;;;;;;;12.75;4.05;;;;;;;;;;6244309;22;20004;-66
2022/12/20 10:00:19;;;;;;;16.88;6.40;;;;;;;;;;6244126;23;20031;-66
2022/12/20 10:02:46;;;;;;;11.90;4.38;;;;;;;;;;6243601;23;20054;-66
2022/12/20 10:05:15;;;;;;;9.20;3.67;;;;;;;;;;6244990;23;20008;-66
2022/12/20 10:07:46;;;;;;;9.55;4.40;;;;;;;;;;6245809;23;20370;-66
2022/12/20 10:10:26;;;;;;;8.88;4.45;;;;;;;;;;6243703;23;20383;-66
2022/12/20 10:13:02;;;;;;;11.32;4.07;;;;;;;;;;6243684;23;20331;-66
2022/12/20 10:15:32;;;;;;;12.00;4.68;;;;;;;;;;6242944;23;20015;-66
2022/12/20 10:18:17;;;;;;;11.32;4.75;;;;;;;;;;6242280;23;20011;-66
2022/12/20 10:20:57;;;;;;;16.67;3.83;;;;;;;;;;6243338;23;20086;-66
2022/12/20 10:23:30;;;;;;;9.98;4.88;;;;;;;;;;6242094;23;20023;-66
2022/12/20 10:25:57;;;;;;;16.23;4.07;;;;;;;;;;6242885;23;20004;-66
2022/12/20 10:28:25;;;;;;;8.27;3.90;;;;;;;;;;6241902;23;20075;-66
2022/12/20 10:30:52;;;;;;;16.67;5.60;;;;;;;;;;6242939;23;20004;-66
2022/12/20 10:33:19;;;;;;;14.52;4.20;;;;;;;;;;6242821;23;20000;-66
2022/12/20 10:35:46;;;;;;;12.68;3.42;;;;;;;;;;6242517;23;20008;-66
2022/12/20 10:38:13;;;;;;;13.57;4.30;;;;;;;;;;6242745;23;20000;-66
2022/12/20 10:40:43;;;;;;;20.70;4.95;;;;;;;;;;6242241;22;20481;-66
2022/12/20 10:43:18;;;;;;;15.38;4.90;;;;;;;;;;6241756;23;20015;-66
2022/12/20 10:45:45;;;;;;;16.27;3.28;;;;;;;;;;6242205;23;20390;-66
2022/12/20 10:48:27;;;;;;;18.73;3.83;;;;;;;;;;6243296;23;20049;-66
2022/12/20 10:51:00;;;;;;;15.05;3.80;;;;;;;;;;6242495;23;20015;-66
2022/12/20 10:53:27;;;;;;;10.80;3.60;;;;;;;;;;6242243;23;20004;-66
2022/12/20 10:55:54;;;;;;;10.70;3.40;;;;;;;;;;6242920;23;20454;-66
2022/12/20 10:58:20;;;;;;;11.52;3.83;;;;;;;;;;6241308;23;20023;-66
2022/12/20 11:00:48;;;;;;;19.70;3.45;;;;;;;;;;6242029;23;20032;-66
2022/12/20 11:03:19;;;;;;;14.35;4.40;;;;;;;;;;6242090;22;20074;-66
2022/12/20 11:05:56;;;;;;;12.27;3.50;;;;;;;;;;6242097;22;20068;-66
2022/12/20 11:08:23;;;;;;;16.42;3.38;;;;;;;;;;6242460;23;20005;-66
2022/12/20 11:10:51;;;;;;;15.25;3.45;;;;;;;;;;6241525;22;20004;-66
2022/12/20 11:13:28;;;;;;;15.23;3.15;;;;;;;;;;6240564;22;20016;-66
2022/12/20 11:15:56;;;;;;;13.52;3.15;;;;;;;;;;6240441;23;20023;-66
2022/12/20 11:18:40;;;;;;;15.45;4.45;;;;;;;;;;6242183;22;20054;-66
2022/12/20 11:21:14;;;;;;;17.67;3.42;;;;;;;;;;6243416;23;20014;-66
2022/12/20 11:23:47;;;;;;;12.13;5.80;;;;;;;;;;6242734;23;20004;-66
2022/12/20 11:26:16;;;;;;;12.55;4.35;;;;;;;;;;6242887;22;20023;-66
2022/12/20 11:28:51;;;;;;;13.45;2.67;;;;;;;;;;6242898;23;20000;-66
2022/12/20 11:31:27;;;;;;;9.02;2.03;;;;;;;;;;6243394;23;20058;-66
2022/12/20 11:33:53;;;;;;;11.15;2.45;;;;;;;;;;6242941;23;20408;-66
2022/12/20 11:36:29;;;;;;;13.25;2.40;;;;;;;;;;6241362;23;20346;-66
2022/12/20 11:39:10;;;;;;;8.25;2.72;;;;;;;;;;6240764;23;20341;-66
2022/12/20 11:41:58;;;;;;;12.63;3.20;;;;;;;;;;6240897;23;20350;-66
2022/12/20 11:44:46;;;;;;;8.85;2.05;;;;;;;;;;6241216;23;20034;-66
2022/12/20 11:47:31;;;;;;;13.38;3.33;;;;;;;;;;6241662;23;20015;-66
2022/12/20 11:50:12;;;;;;;12.27;1.88;;;;;;;;;;6241418;23;20004;-66
2022/12/20 11:52:43;;;;;;;16.23;2.53;;;;;;;;;;6241499;23;20438;-66
2022/12/20 11:55:09;;;;;;;11.48;1.80;;;;;;;;;;6240855;23;20011;-66
2022/12/20 11:57:39;;;;;;;16.73;2.13;;;;;;;;;;6241290;23;20004;-66
2022/12/20 12:00:06;;;;;;;20.30;2.10;;;;;;;;;;6240558;23;20004;-66
2022/12/20 12:02:41;;;;;;;15.68;2.30;;;;;;;;;;6240183;22;20007;-66
2022/12/20 12:05:15;;;;;;;14.68;2.15;;;;;;;;;;6240466;23;20008;-66
2022/12/20 12:07:43;;;;;;;19.58;2.17;;;;;;;;;;6241556;23;20000;-66
2022/12/20 12:10:23;;;;;;;13.90;2.22;;;;;;;;;;6241426;23;20000;-66
2022/12/20 12:13:00;;;;;;;9.27;1.73;;;;;;;;;;6243147;23;20043;-66
2022/12/20 12:15:46;;;;;;;14.35;2.13;;;;;;;;;;6242953;23;20032;-66
2022/12/20 12:18:16;;;;;;;13.50;2.08;;;;;;;;;;6243084;22;20075;-66
2022/12/20 12:21:07;;;;;;;15.32;2.03;;;;;;;;;;6243019;23;20343;-66
2022/12/20 12:23:52;;;;;;;9.07;2.60;;;;;;;;;;6228736;23;20438;-66
2022/12/20 12:26:25;;;;;;;18.92;2.67;;;;;;;;;;6243312;23;20438;-66
2022/12/20 12:28:55;;;;;;;10.70;1.88;;;;;;;;;;6243396;23;20079;-66
2022/12/20 12:31:36;;;;;;;14.60;2.20;;;;;;;;;;6243218;23;20000;-66
2022/12/20 12:34:02;;;;;;;18.83;3.03;;;;;;;;;;6243155;23;20465;-66
2022/12/20 12:36:30;;;;;;;5.82;2.20;;;;;;;;;;6242893;23;20012;-66
2022/12/20 12:39:15;;;;;;;16.42;2.03;;;;;;;;;;6241794;23;20008;-66
2022/12/20 12:41:49;;;;;;;14.25;2.55;;;;;;;;;;6241888;23;20008;-66
2022/12/20 12:44:18;;;;;;;17.63;2.58;;;;;;;;;;6242319;23;20015;-66
2022/12/20 12:46:45;;;;;;;23.52;2.85;;;;;;;;;;6242674;23;20296;-67
2022/12/20 12:49:16;;;;;;;16.35;2.22;;;;;;;;;;6243671;23;20004;-66
2022/12/20 12:51:49;;;;;;;11.45;2.33;;;;;;;;;;6244195;22;20451;-66
2022/12/20 12:54:42;;;;;;;12.90;2.53;;;;;;;;;;6243199;23;20043;-66
2022/12/20 12:57:53;;;;;;;16.25;2.20;;;;;;;;;;6245077;23;20019;-66
2022/12/20 13:00:59;;;;;;;14.30;2.70;;;;;;;;;;6244020;23;20120;-66
2022/12/20 13:03:53;;;;;;;19.42;2.92;;;;;;;;;;6242538;23;20019;-66
2022/12/20 13:06:48;;;;;;;15.25;2.60;;;;;;;;;;6244131;23;20409;-66
2022/12/20 13:09:19;;;;;;;20.20;2.45;;;;;;;;;;6244337;23;20012;-66
2022/12/20 13:11:52;;;;;;;17.48;2.38;;;;;;;;;;6242884;23;20015;-66
2022/12/20 13:14:24;;;;;;;11.10;1.67;;;;;;;;;;6243858;23;20078;-66
2022/12/20 13:16:59;;;;;;;21.60;2.90;;;;;;;;;;6243665;23;20004;-66
2022/12/20 13:19:26;;;;;;;18.13;2.65;;;;;;;;;;6245283;23;20330;-66
2022/12/20 13:21:55;;;;;;;13.88;3.00;;;;;;;;;;6245046;23;20070;-66
2022/12/20 13:24:41;;;;;;;21.63;2.70;;;;;;;;;;6244152;23;20062;-66
2022/12/20 13:27:15;;;;;;;21.65;2.67;;;;;;;;;;6243415;23;20091;-66
2022/12/20 13:29:53;;;;;;;11.27;2.90;;;;;;;;;;6243406;22;20003;-66
2022/12/20 13:32:38;;;;;;;15.75;2.53;;;;;;;;;;6243633;22;20438;-66
2022/12/20 13:35:27;;;;;;;15.73;2.92;;;;;;;;;;6244095;23;20100;-66
2022/12/20 13:38:04;;;;;;;17.95;2.67;;;;;;;;;;6243424;23;20015;-66
2022/12/20 13:40:42;;;;;;;16.77;2.30;;;;;;;;;;6242792;23;20016;-66
2022/12/20 13:43:14;;;;;;;10.80;3.15;;;;;;;;;;6243877;23;20011;-66
2022/12/20 13:45:43;;;;;;;15.20;2.78;;;;;;;;;;6243825;23;20007;-66
2022/12/20 13:48:14;;;;;;;14.80;3.63;;;;;;;;;;6243129;23;20050;-65
2022/12/20 13:50:41;;;;;;;22.00;2.80;;;;;;;;;;6243534;23;20011;-65
2022/12/20 13:53:16;;;;;;;17.55;2.45;;;;;;;;;;6244280;22;20019;-65
2022/12/20 13:55:43;;;;;;;18.27;2.75;;;;;;;;;;6241735;23;20430;-65
2022/12/20 13:58:13;;;;;;;14.60;2.60;;;;;;;;;;6244095;22;20040;-65
2022/12/20 14:00:40;;;;;;;12.70;2.70;;;;;;;;;;6243155;23;20007;-65
2022/12/20 14:03:11;;;;;;;16.40;2.90;;;;;;;;;;6243300;23;20034;-65
2022/12/20 14:05:38;;;;;;;14.73;2.72;;;;;;;;;;6242562;23;20342;-65
2022/12/20 14:08:10;;;;;;;12.68;2.63;;;;;;;;;;6244842;23;20004;-65
2022/12/20 14:10:36;;;;;;;18.73;2.60;;;;;;;;;;6243361;23;20075;-65
2022/12/20 14:13:03;;;;;;;20.05;4.45;;;;;;;;;;6240405;23;20008;-65
2022/12/20 14:15:31;;;;;;;18.75;2.95;;;;;;;;;;6244102;22;20015;-65
2022/12/20 14:17:57;;;;;;;15.35;3.65;;;;;;;;;;6244559;23;20015;-65
2022/12/20 14:20:31;;;;;;;17.83;3.30;;;;;;;;;;6242091;23;20450;-65
2022/12/20 14:23:00;;;;;;;25.85;2.90;;;;;;;;;;6243006;23;20387;-65
2022/12/20 14:25:35;;;;;;;13.77;2.88;;;;;;;;;;6242909;23;20459;-65
2022/12/20 14:28:02;;;;;;;14.90;2.55;;;;;;;;;;6242744;23;20535;-65
2022/12/20 14:30:30;;;;;;;11.10;3.10;;;;;;;;;;6243327;23;20005;-65
2022/12/20 14:32:57;;;;;;;19.15;3.45;;;;;;;;;;6242493;22;20008;-65
2022/12/20 14:35:23;;;;;;;19.00;2.92;;;;;;;;;;6242827;23;20049;-65
2022/12/20 14:37:58;;;;;;;21.00;2.63;;;;;;;;;;6242767;23;20381;-65
2022/12/20 14:40:24;;;;;;;20.80;3.00;;;;;;;;;;6243204;22;20462;-65
2022/12/20 14:42:50;;;;;;;15.32;2.55;;;;;;;;;;6241860;23;20387;-65
2022/12/20 14:45:26;;;;;;;15.55;2.67;;;;;;;;;;6242155;23;20008;-65
2022/12/20 14:47:59;;;;;;;15.85;2.40;;;;;;;;;;6241781;23;20047;-65
2022/12/20 14:50:33;;;;;;;10.88;2.50;;;;;;;;;;6242177;23;20008;-65
2022/12/20 14:53:00;;;;;;;14.80;3.13;;;;;;;;;;6242892;23;20039;-65
2022/12/20 14:55:32;;;;;;;12.43;2.75;;;;;;;;;;6242879;23;20015;-65
2022/12/20 14:57:58;;;;;;;17.58;3.45;;;;;;;;;;6242662;22;20073;-65